Terminal Aerodrome Forecast
Issued by NWS Columbia, SC

Home | Current Version | Previous Version | Text Only | Print | Product List | Glossary On
Versions: 1 2 3 4 5 6 7 8 9 10 11 12 13 14 15 16 17 18 19 20 21 22 23 24 25 26 27 28 29 30 31 32 33 34 35 36 37 38 39 40 41 42 43 44 45 46 47 48 49 50
000
FTUS42 KCAE 012300
TAFAGS
TAF
KAGS 012339Z 0200/0224 VRB05KT P6SM VCTS BKN060CB BKN120
      TEMPO 0200/0202 VRB01G20KT 3SM +TSRA BR SCT030 BKN050CB OVC100
     FM020200 VRB03KT P6SM SCT200
     FM020700 VRB03KT 4SM BR SCT003 SCT200
      TEMPO 0208/0211 2SM BR BKN003
     FM021200 VRB04KT P6SM SCT050 BKN200=

USA.gov is the U.S. government's official web portal to all federal, state and local government web resources and services.